Time;durP1;ratioP1;P1;durP2;ratioP2;P2;SDS_P1;SDS_P2;PMS_P1;PMS_P2;Temp;Humidity;BMP_temperature;BMP_pressure;BME280_temperature;BME280_humidity;BME280_pressure;Samples;Min_cycle;Max_cycle;Signal;HPM_P1;HPM_P2
2022/05/27 00:00:04;;;;;;;2.25;1.15;;;;;;;16.64;72.68;99189.56;4485527;32;20084;-71
2022/05/27 00:02:31;;;;;;;3.47;1.12;;;;;;;16.63;73.11;99182.59;4485010;31;20089;-71
2022/05/27 00:04:58;;;;;;;2.05;1.10;;;;;;;16.66;72.82;99183.09;4485072;32;20113;-71
2022/05/27 00:07:26;;;;;;;2.55;1.00;;;;;;;16.72;72.88;99184.25;4485293;31;20550;-71
2022/05/27 00:09:53;;;;;;;5.20;1.10;;;;;;;16.75;72.75;99180.47;4485022;31;20454;-71
2022/05/27 00:12:21;;;;;;;2.58;1.25;;;;;;;16.78;72.79;99186.22;4485306;31;20088;-71
2022/05/27 00:14:48;;;;;;;2.05;1.05;;;;;;;16.75;72.76;99170.69;4485017;31;20348;-71
2022/05/27 00:17:15;;;;;;;2.17;1.15;;;;;;;16.80;72.65;99165.72;4485283;31;20100;-71
2022/05/27 00:19:43;;;;;;;1.10;1.00;;;;;;;16.81;72.51;99170.00;4485335;31;20092;-71
2022/05/27 00:22:10;;;;;;;3.97;1.30;;;;;;;16.83;72.18;99157.44;4485088;31;20084;-71
2022/05/27 00:24:37;;;;;;;1.10;1.00;;;;;;;16.82;72.14;99150.50;4484900;31;20596;-71
2022/05/27 00:27:07;;;;;;;2.67;1.30;;;;;;;16.83;71.97;99152.16;4485122;32;20100;-71
2022/05/27 00:29:35;;;;;;;2.25;1.08;;;;;;;16.83;72.06;99149.50;4485206;31;20495;-71
2022/05/27 00:32:23;;;;;;;1.42;1.10;;;;;;;16.87;72.29;99154.50;4484801;32;20067;-71
2022/05/27 00:34:50;;;;;;;5.57;1.20;;;;;;;16.84;72.66;99158.28;4484911;31;20119;-71
2022/05/27 00:37:18;;;;;;;1.62;1.17;;;;;;;16.81;72.65;99159.44;4485006;31;20080;-71
2022/05/27 00:39:45;;;;;;;3.25;1.40;;;;;;;16.78;72.99;99154.47;4484806;32;20566;-71
2022/05/27 00:42:12;;;;;;;1.40;1.17;;;;;;;16.76;72.92;99156.47;4485279;32;20083;-71
2022/05/27 00:44:39;;;;;;;2.75;1.02;;;;;;;16.80;72.84;99155.13;4484524;32;20513;-71
2022/05/27 00:47:10;;;;;;;2.97;1.30;;;;;;;16.82;72.63;99150.50;4485025;31;20112;-71
2022/05/27 00:49:44;;;;;;;1.62;1.08;;;;;;;16.87;72.21;99150.03;4483732;32;20108;-71
2022/05/27 00:52:12;;;;;;;;;;;;;;;16.89;72.37;99155.97;4484326;32;20084;-71
2022/05/27 00:54:40;;;;;;;1.58;1.40;;;;;;;16.95;71.98;99149.19;4483545;32;20002;-71
2022/05/27 00:57:12;;;;;;;1.77;1.20;;;;;;;16.94;72.05;99152.81;4484746;31;20545;-71
2022/05/27 00:59:49;;;;;;;1.55;1.20;;;;;;;16.93;72.50;99159.12;4483359;32;20134;-71
2022/05/27 01:02:18;;;;;;;2.95;1.40;;;;;;;16.90;72.40;99154.19;4483208;32;20075;-71
2022/05/27 01:04:47;;;;;;;4.53;1.15;;;;;;;16.89;72.43;99158.62;4484513;31;20119;-71
2022/05/27 01:07:14;;;;;;;1.58;1.20;;;;;;;16.81;72.91;99154.13;4483372;32;20449;-71
2022/05/27 01:09:42;;;;;;;2.20;1.20;;;;;;;16.81;72.99;99148.84;4484730;32;20092;-71
2022/05/27 01:12:47;;;;;;;2.40;1.15;;;;;;;16.80;73.07;99157.78;4484570;32;20197;-71
2022/05/27 01:15:14;;;;;;;2.28;1.15;;;;;;;16.82;72.68;99162.91;4484621;31;20093;-71
2022/05/27 01:17:56;;;;;;;2.03;1.50;;;;;;;16.83;72.98;99154.78;4484532;31;20120;-71
2022/05/27 01:20:51;;;;;;;2.95;1.20;;;;;;;16.78;73.29;99154.47;4484155;32;20077;-71
2022/05/27 01:23:36;;;;;;;1.45;1.15;;;;;;;16.78;73.55;99149.19;4407081;32;20086;-71
2022/05/27 01:26:34;;;;;;;1.42;1.25;;;;;;;16.75;74.08;99151.34;4407267;32;20448;-71
2022/05/27 01:29:25;;;;;;;1.67;1.40;;;;;;;16.73;74.32;99140.94;4419882;32;20147;-71
2022/05/27 01:31:59;;;;;;;2.72;1.50;;;;;;;16.66;74.68;99142.59;4419718;32;20494;-71
2022/05/27 01:34:53;;;;;;;3.90;1.55;;;;;;;16.68;74.85;99143.25;4419717;32;20629;-71
2022/05/27 01:37:45;;;;;;;4.45;1.60;;;;;;;16.71;74.77;99148.19;4407244;32;20490;-71
2022/05/27 01:40:37;;;;;;;2.42;1.40;;;;;;;16.71;74.88;99145.56;4419780;32;20132;-71
2022/05/27 01:43:15;;;;;;;1.70;1.20;;;;;;;16.75;74.82;99143.41;4407186;32;20116;-71
2022/05/27 01:46:12;;;;;;;1.70;1.40;;;;;;;16.64;75.63;99140.13;4407052;32;20636;-71
2022/05/27 01:48:45;;;;;;;2.33;1.37;;;;;;;16.58;76.16;99142.59;4374085;32;20314;-71
2022/05/27 01:51:14;;;;;;;2.13;1.27;;;;;;;16.58;76.32;99138.13;4374546;32;20578;-71
2022/05/27 01:53:50;;;;;;;3.20;1.58;;;;;;;16.57;76.59;99135.66;4373989;32;20141;-71
2022/05/27 01:56:21;;;;;;;3.62;1.55;;;;;;;16.53;76.83;99135.16;4373971;32;20090;-71
2022/05/27 01:59:24;;;;;;;6.78;1.65;;;;;;;16.53;77.32;99134.34;4374133;32;20169;-71
2022/05/27 02:02:15;;;;;;;5.28;1.42;;;;;;;16.54;77.32;99128.88;4343861;33;20107;-71
2022/05/27 02:04:58;;;;;;;2.97;1.50;;;;;;;16.55;77.31;99133.19;4344067;33;20135;-71
2022/05/27 02:07:37;;;;;;;2.58;1.70;;;;;;;16.49;77.63;99131.22;4332165;33;20628;-71
2022/05/27 02:10:18;;;;;;;3.05;1.52;;;;;;;16.52;77.58;99127.38;4344510;33;20162;-71
2022/05/27 02:12:54;;;;;;;4.50;1.75;;;;;;;16.38;78.14;99127.09;4344450;33;20508;-71
2022/05/27 02:15:32;;;;;;;3.60;1.77;;;;;;;16.32;78.73;99122.44;4344254;33;20444;-71
2022/05/27 02:18:06;;;;;;;3.62;1.58;;;;;;;16.19;79.38;99130.06;4331832;33;20602;-71
2022/05/27 02:20:38;;;;;;;2.03;1.50;;;;;;;16.06;80.02;99123.41;4343880;33;20199;-71
2022/05/27 02:23:22;;;;;;;2.30;1.77;;;;;;;16.00;80.37;99124.06;4331694;33;20465;-71
2022/05/27 02:25:51;;;;;;;3.80;2.35;;;;;;;15.91;80.80;99130.31;4384672;32;20102;-71
2022/05/27 02:28:23;;;;;;;2.62;1.67;;;;;;;15.87;80.86;99127.19;4418998;32;20312;-71
2022/05/27 02:30:54;;;;;;;3.35;1.70;;;;;;;15.77;81.29;99131.75;4404149;32;20140;-71
2022/05/27 02:36:32;;;;;;;3.10;1.80;;;;;;;15.66;81.65;99132.91;4405960;32;20098;-71
2022/05/27 02:38:59;;;;;;;2.95;1.77;;;;;;;15.56;82.00;99135.69;4457456;32;20107;-71
2022/05/27 02:41:38;;;;;;;3.62;1.62;;;;;;;15.41;82.55;99132.81;4470422;32;20104;-71
2022/05/27 02:44:20;;;;;;;2.92;1.48;;;;;;;15.39;82.54;99132.13;4481834;32;20097;-71
2022/05/27 02:47:11;;;;;;;3.72;1.80;;;;;;;15.32;82.89;99128.50;4470188;32;20113;-71
2022/05/27 02:49:45;;;;;;;4.10;1.60;;;;;;;15.27;83.10;99130.78;4470027;32;20097;-71
2022/05/27 02:52:31;;;;;;;3.65;1.92;;;;;;;15.31;82.88;99124.19;4470090;32;20092;-71
2022/05/27 02:55:18;;;;;;;3.50;1.50;;;;;;;15.30;82.84;99127.81;4470262;32;20489;-71
2022/05/27 02:57:47;;;;;;;6.75;1.92;;;;;;;15.33;82.79;99124.84;4481568;32;20146;-71
2022/05/27 03:00:26;;;;;;;2.03;1.42;;;;;;;15.26;83.15;99129.94;4469988;32;20147;-71
2022/05/27 03:02:54;;;;;;;2.05;1.60;;;;;;;15.26;83.23;99131.75;4469765;32;20438;-71
2022/05/27 03:05:27;;;;;;;5.97;2.08;;;;;;;15.21;83.55;99126.94;4470206;32;20139;-71
2022/05/27 03:08:07;;;;;;;3.05;1.87;;;;;;;15.23;83.61;99129.41;4481443;32;20123;-71
2022/05/27 03:11:01;;;;;;;6.37;2.08;;;;;;;15.19;83.86;99146.59;4470083;32;20146;-71
2022/05/27 03:13:57;;;;;;;3.08;1.50;;;;;;;15.25;83.63;99140.66;4481410;32;20124;-71
2022/05/27 03:16:49;;;;;;;2.83;1.70;;;;;;;15.31;83.50;99137.41;4469955;32;20085;-71
2022/05/27 03:19:59;;;;;;;2.60;1.73;;;;;;;15.48;82.62;99140.09;4481453;32;20118;-71
2022/05/27 03:22:59;;;;;;;2.62;1.70;;;;;;;15.58;82.60;99140.81;4465503;32;20107;-71
2022/05/27 03:26:00;;;;;;;2.83;2.00;;;;;;;15.80;80.83;99142.03;4420942;32;20125;-71
2022/05/27 03:28:38;;;;;;;4.20;1.70;;;;;;;16.04;78.76;99143.09;4408349;32;20128;-71
2022/05/27 03:31:17;;;;;;;2.47;1.60;;;;;;;16.14;77.58;99143.75;4408164;32;20510;-71
2022/05/27 03:34:03;;;;;;;4.18;2.12;;;;;;;16.17;77.00;99139.94;4420792;32;20553;-71
2022/05/27 03:36:36;;;;;;;4.03;2.00;;;;;;;16.20;76.74;99147.53;4421225;32;20110;-71
2022/05/27 03:39:11;;;;;;;4.72;1.98;;;;;;;16.24;76.43;99138.31;4420802;32;20097;-71
2022/05/27 03:41:46;;;;;;;3.70;1.92;;;;;;;16.19;76.48;99133.50;4407958;32;20210;-71
2022/05/27 03:44:16;;;;;;;1.87;1.70;;;;;;;16.17;76.64;99140.78;4408199;32;20467;-71
2022/05/27 03:46:44;;;;;;;3.65;2.12;;;;;;;16.27;76.38;99137.97;4420924;32;20165;-71
2022/05/27 03:49:11;;;;;;;4.35;1.70;;;;;;;16.31;76.37;99141.94;4420879;32;20648;-71
2022/05/27 03:52:04;;;;;;;8.23;1.98;;;;;;;16.38;75.60;99153.53;4420873;32;20085;-71
2022/05/27 03:54:32;;;;;;;3.50;1.80;;;;;;;16.48;75.08;99150.69;4375086;32;20178;-71
2022/05/27 03:57:00;;;;;;;3.87;1.70;;;;;;;16.60;74.14;99143.25;4375249;32;20133;-71
2022/05/27 03:59:27;;;;;;;2.33;1.67;;;;;;;16.61;74.37;99144.94;4375146;32;20129;-71
2022/05/27 04:01:55;;;;;;;3.53;1.85;;;;;;;16.59;74.78;99152.19;4399802;32;20102;-72
2022/05/27 04:04:28;;;;;;;2.87;1.75;;;;;;;16.58;74.54;99148.72;4450975;32;20176;-72
2022/05/27 04:06:56;;;;;;;3.60;2.33;;;;;;;16.54;74.23;99150.03;4451109;32;20148;-72
2022/05/27 04:09:25;;;;;;;4.55;1.85;;;;;;;16.45;74.98;99146.56;4451322;32;20517;-72
2022/05/27 04:11:52;;;;;;;2.40;1.42;;;;;;;16.43;75.16;99151.19;4451458;32;20120;-72
2022/05/27 04:14:20;;;;;;;3.05;1.65;;;;;;;16.53;73.99;99145.72;4450596;32;20466;-73
2022/05/27 04:16:48;;;;;;;4.45;2.00;;;;;;;16.63;73.65;99142.94;4451485;32;20172;-72
2022/05/27 04:19:17;;;;;;;2.58;1.60;;;;;;;16.87;72.72;99141.28;4449677;32;20116;-72
2022/05/27 04:21:44;;;;;;;1.45;1.35;;;;;;;17.11;71.95;99143.84;4449981;32;20125;-73
2022/05/27 04:24:12;;;;;;;6.18;1.55;;;;;;;17.36;71.16;99144.59;4451153;32;20113;-72
2022/05/27 04:26:39;;;;;;;2.25;1.27;;;;;;;17.59;69.51;99137.72;4450205;32;20125;-72
2022/05/27 04:29:06;;;;;;;2.05;1.50;;;;;;;17.68;69.04;99152.56;4450220;32;20307;-73
2022/05/27 04:31:33;;;;;;;3.20;2.03;;;;;;;17.47;69.38;99150.50;4454896;32;20160;-73
2022/05/27 04:34:03;;;;;;;1.50;1.20;;;;;;;17.37;69.04;99153.38;4468127;32;20496;-72
2022/05/27 04:36:30;;;;;;;1.60;1.48;;;;;;;17.22;69.99;99149.78;4469404;32;20442;-72
2022/05/27 04:38:57;;;;;;;3.55;1.73;;;;;;;17.09;70.06;99156.41;4469084;32;20204;-72
2022/05/27 04:41:25;;;;;;;2.67;1.62;;;;;;;17.19;70.55;99143.00;4468700;32;20616;-73
2022/05/27 04:43:52;;;;;;;9.52;1.92;;;;;;;17.47;70.74;99142.56;4467008;32;20112;-72
2022/05/27 04:46:19;;;;;;;1.85;1.35;;;;;;;17.53;69.36;99145.34;4467319;32;20624;-73
2022/05/27 04:48:49;;;;;;;4.57;1.62;;;;;;;17.74;68.13;99138.63;4467304;32;20109;-72
2022/05/27 04:51:16;;;;;;;6.25;1.58;;;;;;;17.89;67.27;99142.19;4468538;32;20097;-72
2022/05/27 04:53:43;;;;;;;3.83;1.30;;;;;;;17.86;65.59;99139.87;4467895;32;20139;-73
2022/05/27 04:56:11;;;;;;;2.20;1.12;;;;;;;18.04;65.54;99138.81;4469127;32;20151;-73
2022/05/27 04:58:38;;;;;;;2.78;1.02;;;;;;;18.13;65.16;99139.56;4468966;32;20112;-73
2022/05/27 05:01:05;;;;;;;2.67;1.12;;;;;;;18.17;62.92;99143.50;4467414;32;20109;-73
2022/05/27 05:03:32;;;;;;;6.35;1.05;;;;;;;18.26;63.03;99142.47;4468795;32;20382;-72
2022/05/27 05:05:59;;;;;;;1.92;1.10;;;;;;;18.28;63.46;99145.75;4468770;32;20560;-73
2022/05/27 05:08:36;;;;;;;3.72;1.80;;;;;;;18.53;63.52;99148.19;4469252;32;20154;-74
2022/05/27 05:11:04;;;;;;;1.62;1.08;;;;;;;18.58;61.53;99145.84;4455089;32;20126;-74
2022/05/27 05:13:33;;;;;;;3.42;1.50;;;;;;;18.56;61.14;99142.53;4468214;32;20127;-73
2022/05/27 05:16:00;;;;;;;12.65;1.83;;;;;;;18.68;61.82;99146.41;4481080;32;20139;-73
2022/05/27 05:18:27;;;;;;;2.05;1.00;;;;;;;18.83;60.56;99149.06;4478970;32;20088;-74
2022/05/27 05:20:56;;;;;;;3.58;1.00;;;;;;;18.94;59.14;99145.19;4480637;31;20124;-74
2022/05/27 05:23:23;;;;;;;1.90;1.58;;;;;;;19.07;60.34;99147.22;4476114;32;20546;-73
2022/05/27 05:25:50;;;;;;;2.10;1.00;;;;;;;19.12;59.82;99140.34;4481553;32;20126;-73
2022/05/27 05:28:18;;;;;;;1.95;1.20;;;;;;;19.09;60.06;99148.69;4480340;31;20108;-73
2022/05/27 05:30:45;;;;;;;3.75;1.20;;;;;;;18.94;59.31;99148.69;4482233;31;20141;-73
2022/05/27 05:33:13;;;;;;;6.43;1.00;;;;;;;19.00;61.39;99143.62;4482414;31;20115;-73
2022/05/27 05:35:40;;;;;;;2.25;0.90;;;;;;;19.01;58.92;99143.44;4482745;31;20139;-73
2022/05/27 05:38:08;;;;;;;0.75;0.75;;;;;;;19.04;60.50;99148.41;4482272;31;20100;-74
2022/05/27 05:40:35;;;;;;;2.58;1.15;;;;;;;19.04;59.53;99151.06;4481026;31;20115;-76
2022/05/27 05:43:03;;;;;;;1.80;1.42;;;;;;;19.11;59.12;99151.97;4480900;32;20105;-74
2022/05/27 05:45:30;;;;;;;3.50;1.50;;;;;;;19.10;60.53;99149.50;4482151;31;20092;-75
2022/05/27 05:47:57;;;;;;;1.83;1.25;;;;;;;19.34;60.68;99148.41;4483363;31;20100;-74
2022/05/27 05:50:25;;;;;;;2.17;1.40;;;;;;;19.44;60.11;99146.28;4480328;31;20273;-73
2022/05/27 05:52:52;;;;;;;2.20;1.98;;;;;;;19.49;60.07;99149.19;4479532;31;20598;-73
2022/05/27 05:55:19;;;;;;;3.10;1.48;;;;;;;19.55;59.97;99142.31;4480696;31;20096;-73
2022/05/27 05:57:48;;;;;;;7.55;1.40;;;;;;;19.75;60.22;99141.75;4480919;31;20197;-73
2022/05/27 06:00:20;;;;;;;1.85;1.20;;;;;;;19.77;58.92;99143.25;4481438;31;20145;-73
2022/05/27 06:02:47;;;;;;;2.22;0.95;;;;;;;19.81;58.17;99144.50;4481671;31;20139;-73
2022/05/27 06:05:15;;;;;;;2.03;1.12;;;;;;;19.81;56.75;99143.69;4484049;31;20157;-74
2022/05/27 06:07:42;;;;;;;4.32;0.95;;;;;;;19.80;55.99;99150.00;4484086;32;20855;-74
2022/05/27 06:10:10;;;;;;;2.03;1.10;;;;;;;20.01;55.78;99141.22;4484534;31;20127;-73
2022/05/27 06:12:38;;;;;;;1.08;0.90;;;;;;;20.09;54.88;99146.44;4483596;32;20107;-73
2022/05/27 06:15:08;;;;;;;1.40;0.75;;;;;;;19.96;54.01;99144.44;4485423;31;20154;-73
2022/05/27 06:17:36;;;;;;;1.55;0.88;;;;;;;19.83;53.09;99144.31;4485283;31;20148;-73
2022/05/27 06:20:04;;;;;;;0.73;0.40;;;;;;;20.03;52.97;99147.19;4484002;32;20153;-73
2022/05/27 06:22:32;;;;;;;3.60;0.60;;;;;;;19.94;49.40;99132.34;4483724;31;20096;-73
2022/05/27 06:25:00;;;;;;;1.15;0.57;;;;;;;19.73;50.75;99154.37;4483580;31;20116;-73
2022/05/27 06:27:27;;;;;;;2.03;0.60;;;;;;;19.62;52.21;99148.56;4485504;31;20156;-74
2022/05/27 06:35:26;;;;;;;1.20;0.60;;;;;;;19.94;50.03;99146.47;4485390;31;20088;-74
2022/05/27 06:37:53;;;;;;;1.15;0.60;;;;;;;20.11;48.60;99141.75;4485384;31;20465;-75
2022/05/27 06:40:21;;;;;;;2.83;1.50;;;;;;;20.09;49.28;99143.78;4477079;31;20093;-75
2022/05/27 06:42:48;;;;;;;1.27;0.55;;;;;;;20.05;48.32;99139.03;4483325;31;20127;-76
2022/05/27 06:45:16;;;;;;;0.55;0.50;;;;;;;20.38;49.44;99148.13;4483850;32;20176;-75
2022/05/27 06:47:43;;;;;;;2.83;0.62;;;;;;;20.45;48.16;99136.72;4483609;31;20123;-75
2022/05/27 06:50:10;;;;;;;2.58;0.50;;;;;;;20.56;47.82;99137.03;4483825;31;20088;-74
2022/05/27 06:52:40;;;;;;;3.95;0.60;;;;;;;20.39;48.10;99132.97;4483241;31;20112;-74
2022/05/27 06:55:10;;;;;;;0.98;0.55;;;;;;;20.27;48.76;99135.31;4483772;31;20111;-76
2022/05/27 06:57:38;;;;;;;1.35;0.60;;;;;;;20.11;48.67;99131.09;4485436;31;20123;-74
2022/05/27 07:00:09;;;;;;;0.57;0.55;;;;;;;20.16;49.24;99133.19;4485295;31;20138;-75
2022/05/27 07:02:36;;;;;;;2.45;0.68;;;;;;;19.94;48.85;99129.69;4485474;31;20119;-74
2022/05/27 07:05:03;;;;;;;3.47;1.20;;;;;;;20.02;49.39;99122.41;4484252;32;20118;-75
2022/05/27 07:07:31;;;;;;;2.35;0.70;;;;;;;19.91;50.91;99127.41;4475724;32;20202;-77
2022/05/27 07:09:58;;;;;;;1.90;0.82;;;;;;;20.26;49.73;99133.69;4478086;31;20130;-74
2022/05/27 07:12:26;;;;;;;1.70;0.75;;;;;;;20.29;49.73;99128.00;4479374;32;20115;-74
2022/05/27 07:14:53;;;;;;;4.07;0.60;;;;;;;20.20;50.61;99129.97;4474747;32;20092;-76
2022/05/27 07:17:21;;;;;;;1.60;0.60;;;;;;;20.43;51.20;99126.25;4476846;32;20093;-76
2022/05/27 07:19:49;;;;;;;0.62;0.52;;;;;;;20.61;50.23;99127.62;4470779;31;20501;-75
2022/05/27 07:22:16;;;;;;;5.07;1.42;;;;;;;20.71;50.17;99128.97;4477712;32;20118;-75
2022/05/27 07:24:43;;;;;;;2.60;0.80;;;;;;;20.83;49.23;99120.44;4484168;31;20096;-74
2022/05/27 07:27:10;;;;;;;3.00;0.70;;;;;;;20.86;49.50;99112.06;4482430;31;20126;-73
2022/05/27 07:29:38;;;;;;;2.87;0.70;;;;;;;20.72;50.29;99122.63;4481087;32;20142;-73
2022/05/27 07:32:05;;;;;;;1.20;0.80;;;;;;;20.86;49.77;99112.06;4484247;31;20454;-73
2022/05/27 07:34:32;;;;;;;1.40;1.27;;;;;;;20.87;49.34;99111.03;4485585;31;20115;-76
2022/05/27 07:37:00;;;;;;;2.12;1.12;;;;;;;20.91;50.18;99109.66;4482558;31;20234;-75
2022/05/27 07:39:27;;;;;;;1.80;1.00;;;;;;;21.06;49.84;99101.50;4477088;31;20104;-74
2022/05/27 07:41:54;;;;;;;2.20;1.00;;;;;;;21.14;49.75;99106.69;4482898;31;20114;-73
2022/05/27 07:44:22;;;;;;;6.25;0.90;;;;;;;21.15;49.77;99099.50;4476501;32;20269;-72
2022/05/27 07:46:53;;;;;;;3.60;0.60;;;;;;;21.20;49.64;99107.75;4477822;31;20111;-71
2022/05/27 07:49:21;;;;;;;2.42;1.00;;;;;;;21.13;49.51;99107.69;4481709;32;20150;-74
2022/05/27 07:52:05;;;;;;;1.40;0.80;;;;;;;21.21;49.98;99104.03;4482775;31;20115;-73
2022/05/27 07:54:33;;;;;;;0.62;0.57;;;;;;;21.13;50.13;99099.72;4469876;31;20140;-73
2022/05/27 07:57:00;;;;;;;1.33;0.80;;;;;;;21.26;50.51;99102.44;4480019;32;20084;-73
2022/05/27 07:59:28;;;;;;;1.62;0.80;;;;;;;21.34;50.25;99109.44;4482158;31;20628;-73
2022/05/27 08:01:55;;;;;;;7.15;1.30;;;;;;;21.50;49.86;99100.31;4482056;31;20119;-73
2022/05/27 08:04:22;;;;;;;3.55;0.80;;;;;;;21.41;50.36;99094.31;4482564;32;20784;-73
2022/05/27 08:06:50;;;;;;;1.50;1.12;;;;;;;21.08;49.93;99099.50;4483321;31;20122;-73
2022/05/27 08:09:17;;;;;;;1.80;0.90;;;;;;;21.14;49.79;99101.34;4483404;31;20096;-73
2022/05/27 08:11:44;;;;;;;1.83;0.93;;;;;;;21.05;50.45;99099.88;4480727;31;20105;-73
2022/05/27 08:14:11;;;;;;;1.35;0.93;;;;;;;21.09;50.89;99090.47;4481625;31;20131;-73
2022/05/27 08:16:39;;;;;;;1.02;0.77;;;;;;;20.91;51.02;99099.00;4481055;32;20150;-73
2022/05/27 08:19:07;;;;;;;1.40;1.00;;;;;;;20.83;51.74;99096.47;4484022;31;20465;-73
2022/05/27 08:21:36;;;;;;;1.37;1.10;;;;;;;20.76;52.34;99090.28;4482248;31;20576;-73
2022/05/27 08:24:07;;;;;;;11.55;3.72;;;;;;;21.16;52.01;99090.50;4481273;31;20130;-74
2022/05/27 08:26:37;;;;;;;1.35;0.80;;;;;;;21.38;50.85;99096.56;4477790;31;20171;-74
2022/05/27 08:29:06;;;;;;;3.70;1.10;;;;;;;21.42;49.48;99093.28;4481632;31;20096;-74
2022/05/27 08:31:34;;;;;;;4.72;1.00;;;;;;;21.52;50.70;99087.59;4482826;31;20092;-74
2022/05/27 08:39:39;;;;;;;4.25;1.58;;;;;;;21.67;49.32;99074.09;4483594;32;20092;-74
2022/05/27 08:42:40;;;;;;;1.58;0.90;;;;;;;21.96;48.91;99088.91;4483631;31;20092;-73
2022/05/27 08:45:22;;;;;;;1.80;0.90;;;;;;;21.98;49.92;99073.56;4484187;32;20147;-74
2022/05/27 08:47:52;;;;;;;6.87;1.33;;;;;;;22.10;50.26;99075.59;4483624;32;20135;-74
2022/05/27 08:50:49;;;;;;;3.10;0.82;;;;;;;22.41;49.64;99076.88;4483079;32;20095;-74
2022/05/27 08:53:39;;;;;;;1.80;0.90;;;;;;;22.50;48.33;99075.62;4473307;32;20145;-74
2022/05/27 08:59:27;;;;;;;2.85;0.80;;;;;;;22.49;47.61;99069.44;4468169;32;20096;-74
2022/05/27 09:02:06;;;;;;;9.73;0.98;;;;;;;22.56;48.15;99063.28;4480220;32;20092;-73
2022/05/27 09:04:43;;;;;;;6.72;1.05;;;;;;;22.61;47.64;99066.97;4480771;32;20512;-73
2022/05/27 09:07:22;;;;;;;0.73;0.60;;;;;;;22.57;47.78;99063.06;4482201;31;20169;-73
2022/05/27 09:09:50;;;;;;;6.28;1.00;;;;;;;22.75;47.43;99057.09;4467850;32;20119;-72
2022/05/27 09:12:57;;;;;;;4.60;1.00;;;;;;;22.97;46.55;99054.16;4483110;32;20143;-73
2022/05/27 09:15:48;;;;;;;10.55;1.48;;;;;;;22.99;46.26;99050.22;4484220;32;20088;-73
2022/05/27 09:18:29;;;;;;;7.35;1.00;;;;;;;23.17;47.29;99043.41;4483095;32;20433;-73
2022/05/27 09:21:18;;;;;;;3.33;1.08;;;;;;;23.50;46.38;99043.25;4484260;32;20246;-73
2022/05/27 09:23:49;;;;;;;3.60;0.88;;;;;;;23.30;44.73;99054.06;4483362;32;20084;-73
2022/05/27 09:26:37;;;;;;;1.02;0.90;;;;;;;23.40;45.16;99026.84;4483880;31;20084;-73
2022/05/27 09:29:34;;;;;;;3.80;0.93;;;;;;;23.57;45.23;99032.50;4481515;32;20123;-73
2022/05/27 09:32:13;;;;;;;3.75;0.80;;;;;;;23.44;44.80;99041.44;4476999;32;20088;-73
2022/05/27 09:34:42;;;;;;;1.10;0.80;;;;;;;23.50;44.91;99023.72;4480805;31;20135;-74
2022/05/27 09:37:15;;;;;;;2.15;1.08;;;;;;;23.82;43.05;99024.53;4482971;32;20122;-73
2022/05/27 09:39:42;;;;;;;1.00;0.57;;;;;;;24.00;44.57;99023.81;4483259;32;20518;-73
2022/05/27 09:42:28;;;;;;;1.27;0.80;;;;;;;24.06;43.08;99030.16;4484338;32;20126;-74
2022/05/27 09:44:58;;;;;;;4.22;1.10;;;;;;;24.04;42.95;99016.97;4485312;31;20088;-73
2022/05/27 09:47:30;;;;;;;1.40;0.82;;;;;;;24.22;42.39;99013.50;4484428;32;20092;-74
2022/05/27 09:50:00;;;;;;;1.98;0.90;;;;;;;23.79;42.88;99003.56;4476668;32;20158;-73
2022/05/27 09:52:35;;;;;;;1.73;0.98;;;;;;;23.45;43.86;99007.50;4484433;32;20176;-73
2022/05/27 09:55:15;;;;;;;4.00;0.90;;;;;;;23.50;44.58;98997.78;4484239;32;20092;-73
2022/05/27 09:57:58;;;;;;;3.55;0.98;;;;;;;23.83;43.54;98998.56;4475113;32;20092;-73
2022/05/27 10:00:34;;;;;;;6.35;0.80;;;;;;;24.31;43.50;99000.66;4485264;32;20151;-73
2022/05/27 10:03:26;;;;;;;1.17;0.70;;;;;;;24.07;41.64;98994.28;4484410;31;20810;-72
2022/05/27 10:06:00;;;;;;;2.60;0.90;;;;;;;24.62;41.46;98990.91;4484148;32;20096;-73
2022/05/27 10:08:43;;;;;;;1.75;0.80;;;;;;;24.72;42.09;98985.03;4470634;32;20154;-74
2022/05/27 10:11:16;;;;;;;4.22;0.88;;;;;;;25.07;42.44;98997.78;4470465;32;20550;-73
2022/05/27 10:13:44;;;;;;;2.37;0.80;;;;;;;24.71;41.75;98994.09;4482504;32;20100;-72
2022/05/27 10:16:20;;;;;;;1.77;0.70;;;;;;;24.36;42.37;98992.81;4480363;32;20088;-73
2022/05/27 10:19:05;;;;;;;1.77;1.12;;;;;;;24.29;43.62;98988.56;4484423;31;20116;-73
2022/05/27 10:21:32;;;;;;;;;;;;;;;23.92;43.47;98973.22;4485563;32;20127;-74
2022/05/27 10:24:21;;;;;;;3.22;1.00;;;;;;;24.19;42.70;98960.41;4485809;31;20022;-73
2022/05/27 10:27:10;;;;;;;0.98;0.85;;;;;;;24.40;42.88;98969.06;4483863;32;20457;-73
2022/05/27 10:29:54;;;;;;;2.70;0.73;;;;;;;24.27;42.63;98956.66;4484985;31;20085;-74
2022/05/27 10:32:43;;;;;;;1.55;0.70;;;;;;;24.23;42.46;98952.78;4484421;32;20145;-72
2022/05/27 10:35:25;;;;;;;1.50;0.80;;;;;;;24.42;43.30;98950.91;4478131;32;20986;-73
2022/05/27 10:38:00;;;;;;;0.75;0.75;;;;;;;24.37;43.07;98958.81;4475249;32;20151;-75
2022/05/27 10:40:37;;;;;;;1.52;0.70;;;;;;;24.14;43.65;98952.22;4482626;32;20111;-74
2022/05/27 10:43:36;;;;;;;1.12;0.70;;;;;;;24.02;42.51;98937.94;4484790;31;20104;-73
2022/05/27 10:46:07;;;;;;;3.30;0.80;;;;;;;24.42;43.65;98932.16;4480518;32;20120;-74
2022/05/27 10:48:45;;;;;;;1.70;0.80;;;;;;;24.70;41.70;98923.63;4484977;31;20088;-73
2022/05/27 10:51:50;;;;;;;1.92;0.80;;;;;;;24.82;41.76;98931.72;4481368;32;20088;-73
2022/05/27 10:54:39;;;;;;;1.60;0.80;;;;;;;24.98;42.67;98920.38;4480930;32;20621;-73
2022/05/27 11:03:18;;;;;;;5.00;1.15;;;;;;;25.15;40.78;98906.34;4484812;32;20092;-74
2022/05/27 11:06:01;;;;;;;2.45;1.12;;;;;;;25.52;40.68;98900.81;4484020;32;20123;-74
2022/05/27 11:08:47;;;;;;;1.48;1.02;;;;;;;24.98;41.46;98903.47;4485091;31;20105;-75
2022/05/27 11:11:20;;;;;;;4.93;0.90;;;;;;;25.15;40.89;98891.06;4483253;31;20088;-75
2022/05/27 11:17:05;;;;;;;3.25;1.10;;;;;;;25.32;41.00;98883.19;4483126;31;19983;-73
2022/05/27 11:19:38;;;;;;;1.10;0.90;;;;;;;25.48;40.67;98881.72;4485752;31;20104;-73
2022/05/27 11:22:27;;;;;;;1.80;0.85;;;;;;;25.52;40.75;98876.69;4485234;31;20084;-74
2022/05/27 11:25:16;;;;;;;0.93;0.85;;;;;;;25.94;39.82;98871.19;4484732;31;20100;-74
2022/05/27 11:28:01;;;;;;;1.25;0.70;;;;;;;26.86;39.00;98858.84;4471089;32;20123;-73
2022/05/27 11:30:34;;;;;;;2.33;0.60;;;;;;;27.16;37.95;98857.75;4485043;32;20087;-74
2022/05/27 11:33:40;;;;;;;1.17;0.93;;;;;;;27.06;38.90;98868.34;4482051;32;20088;-73
2022/05/27 11:36:18;;;;;;;2.12;0.95;;;;;;;26.82;39.14;98854.19;4418662;32;20186;-74
2022/05/27 11:39:16;;;;;;;3.78;0.80;;;;;;;26.72;38.68;98834.16;4404521;32;20126;-75
2022/05/27 11:42:12;;;;;;;3.00;0.90;;;;;;;26.74;39.65;98839.28;4412354;32;20129;-75
2022/05/27 11:44:39;;;;;;;2.92;1.10;;;;;;;26.51;39.21;98834.78;4419508;32;20848;-74
2022/05/27 11:47:28;;;;;;;3.65;1.00;;;;;;;26.11;39.45;98828.34;4420431;32;20144;-75
2022/05/27 11:50:06;;;;;;;3.62;1.10;;;;;;;26.10;39.55;98820.53;4419299;32;20113;-75
2022/05/27 11:52:33;;;;;;;1.27;1.08;;;;;;;26.86;38.88;98825.75;4405278;32;20417;-74
2022/05/27 11:55:25;;;;;;;1.48;1.00;;;;;;;26.89;38.56;98826.09;4418658;32;20133;-73
2022/05/27 11:58:34;;;;;;;4.82;1.10;;;;;;;26.83;37.81;98826.25;4415575;32;81648;-73
2022/05/27 12:01:06;;;;;;;2.95;1.12;;;;;;;26.46;39.86;98813.19;4372388;32;20174;-74
2022/05/27 12:03:44;;;;;;;1.70;0.70;;;;;;;26.79;39.10;98806.31;4374431;32;20171;-74
2022/05/27 12:06:18;;;;;;;2.58;1.23;;;;;;;26.39;39.93;98794.53;4382287;32;20484;-73
2022/05/27 12:08:56;;;;;;;5.20;1.12;;;;;;;26.69;39.36;98797.00;4420530;32;20116;-73
2022/05/27 12:11:35;;;;;;;6.35;1.17;;;;;;;27.09;38.88;98793.34;4406457;32;20105;-73
2022/05/27 12:14:26;;;;;;;1.77;1.10;;;;;;;26.84;38.97;98787.56;4419175;32;20139;-73
2022/05/27 12:16:53;;;;;;;2.25;0.93;;;;;;;26.85;39.25;98786.50;4417432;32;20443;-73
2022/05/27 12:19:33;;;;;;;3.15;1.10;;;;;;;27.46;40.23;98786.66;4407161;32;20150;-73
2022/05/27 12:22:10;;;;;;;3.80;0.90;;;;;;;28.30;37.62;98774.03;4417783;32;20139;-73
2022/05/27 12:24:42;;;;;;;1.17;0.95;;;;;;;28.58;36.47;98788.31;4405515;32;20236;-73
2022/05/27 12:27:11;;;;;;;3.62;1.10;;;;;;;28.29;36.74;98769.69;4416280;32;20093;-75
2022/05/27 12:29:39;;;;;;;2.67;0.90;;;;;;;28.33;36.67;98762.75;4405504;32;20105;-74
2022/05/27 12:32:07;;;;;;;3.22;1.20;;;;;;;28.76;36.67;98763.69;4418731;32;20504;-74
2022/05/27 12:34:37;;;;;;;1.85;1.10;;;;;;;28.52;35.55;98759.69;4420026;32;20128;-74